SBPKSUAA

Guest
Details From SBPK - Pelotas
To SUAA - ANGEL S ADAMI
Flight Number -
Tags decoded
Created
Modified
Stats Distance 287 nm / 531 km
Max Altitude 0 ft / 0 m
Waypoints 7
Social Downloads 1
Likes 0
Share VATSIM

Download

Looking for another format? Having issues loading an existing format? Contact us
Advertisement - Login to hide

Notes

Requested: SBPK UGELO OGMAR AROMO MONSA LOMUX ILMAS IREDU SUAA Unmatched points: ILMAS IREDU

Route

SBPK UGELO OGMAR AROMO MONSA LOMUX SUAA

ID Type Via Altitude Latitude Longitude Leg Dist Tot Dist Heading (true) Name
O SBPK APT - 0 ft / 0 m -31.72043˚ -52.32733˚ - 0 nm - Pelotas
UGELO FIX - 0 ft / 0 m -32.67833˚ -53.14717˚ 71 nm 71 nm 216° / 216° -
OGMAR FIX - 0 ft / 0 m -33.29306˚ -54.14889˚ 62 nm 133 nm 234° / 234° -
AROMO FIX - 0 ft / 0 m -33.50056˚ -55.04556˚ 46 nm 180 nm 254° / 255° -
MONSA FIX - 0 ft / 0 m -34.34889˚ -56.18139˚ 76 nm 256 nm 228° / 228° -
LOMUX FIX - 0 ft / 0 m -34.38389˚ -56.29361˚ 5 nm 262 nm 249° / 249° -
O SUAA APT - 0 ft / 0 m -34.78910˚ -56.26470˚ 24 nm 286 nm 177° / 177° ANGEL S ADAMI

Altitude Profile

Advertisement - Login to hide

Weather


0- 5 10 15 20 25 30 35+ Temperature / ° C

Clouds and Precipitation
Forecast for 2018-05-26 18:00 UTC. Updated 3 hours ago

Ground ~20,000 ft ~40,000 ft Winds

SBPK

Details ICAO SBPK (PET)
Name Pelotas
Region Brazil
Timezone America/Sao_Paulo (UTC-3.0)
Stats Elevation 59 ft / 18 m (AMSL)
Location -31.720428° -52.327334°
Runways 2
Magnetic Variation 15.384° W

METAR

SBPK 262000Z 08008KT CAVOK 18/15 Q1019

Decode

TAF

Not found

Departure Runways

ID Width Length Bearing (true) Bearing (mag) Surface Threshold Offset Overrun Length
06 138 ft / 42 m 6,501 ft / 1,982 m 51.16° 66.54° Concrete 0 ft / 0 m 0 ft / 0 m
15 138 ft / 42 m 4,050 ft / 1,234 m 142.34° 157.72° Grass 0 ft / 0 m 0 ft / 0 m
24 138 ft / 42 m 6,501 ft / 1,982 m 231.15° 246.53° Concrete 0 ft / 0 m 0 ft / 0 m
33 138 ft / 42 m 4,050 ft / 1,234 m 322.34° 337.72° Grass 0 ft / 0 m 0 ft / 0 m

SUAA

Details ICAO SUAA
Name ANGEL S ADAMI
Region Uruguay
Timezone America/Montevideo (UTC-3.0)
Stats Elevation 174 ft / 53 m (AMSL)
Location -34.789096° -56.264702°
Runways 1
Magnetic Variation 10.726° W

METAR

SUAA 262000Z 04007KT CAVOK 19/10 Q1016

Decode

TAF

TAF TAF SUAA 261130Z 2612/2712 36015KT CAVOK TX20/2618Z TN10/2710Z PROB30 TEMPO 2703/2712 35005KT 3000 BR NSC

Decode

Destination Runways

ID Width Length Bearing (true) Bearing (mag) Surface Threshold Offset Overrun Length
18 75 ft / 23 m 4,194 ft / 1,278 m 176.77° 187.50° Concrete 0 ft / 0 m 0 ft / 0 m
36 75 ft / 23 m 4,194 ft / 1,278 m 356.77° 7.50° Concrete 0 ft / 0 m 0 ft / 0 m

Popular Alternatives